Forside
METAR-TAF:

METAR-TAF

Lufthavne :

Isedor Iverson Airport

McGregor, Minnesota, USA

Breddekreds: 46-37-07N, længdekreds: 093-18-35W, højde: 374 m

Aktuelle vejr

Denne rapport blev lavet for 20 minutter siden, kl. 11:57 UTC
Vind 10 kt fra sydøst
Temperatur -2°C
Fugtighed 80%
Tryk 1016 hPa
Sigt: 16.1 km
Spredte skyer i en højde af 3200 ft
Overskyet i en højde af 4300 ft

METAR: KHZX 241157Z AUTO 14010KT 10SM SCT032 OVC043 M02/M05 A2999 RMK A

Tid: 06:17 (12:17 UTC)


TAF: fraværende

Vejrobservationer og prognoser fra mere end 4000 lufthavne (METAR og TAF).

De gule og røde prikker repræsenterer de meteorologiske stationer.

Flyt musen over at se navnet på stationen.

Så klik over at se vejr observationer og prognoser.

At skifte det kort: Klik på de grønne knapper med et sort kors for at zoome ind; på den grønne knap med en bindestreg for at zoome ud; eller på de grønne pile for tilstødende kort.


METAR-TAF: